MOUNT RAINIER
GEOLOGY & WEATHER
Hello guest! [ Log In ]
morageology.com Water Data for Camp Muir at Mount Rainier National Park

Camp Muir at Mount Rainier National Park

Date Range to view:
 
[ Graphical View | Weather History | Precipitation Intensity ]

View this data in a CSV Format

GMT Date/Time Local Date/Time Air Temperature (°C) Dew Point Temperature (°C) Relative Humidity (%) Wind Direction (°) Wind Speed (mph) Wind Gust Speed (mph) Solar Radiation (w/m2) Battery (V)
07/31/2021 06:00:00 2021-07-30 23:00:00 12.3111 0.1469 43.2 47 0.00 0.00 0.00 13.4
07/31/2021 05:00:00 2021-07-30 22:00:00 12.0389 1.1289 47.2 45 0.00 0.00 0.00 13.5
07/31/2021 04:00:00 2021-07-30 21:00:00 12.5111 -1.8903 36.8 45 0.00 0.00 10.47 13.5
07/31/2021 03:00:00 2021-07-30 20:00:00 12.5056 0.4729 43.7 45 0.00 0.00 43.02 13.6
07/31/2021 02:00:00 2021-07-30 19:00:00 12.7778 -0.9193 38.8 44 0.00 0.00 174.20 13.7
07/31/2021 01:00:00 2021-07-30 18:00:00 12.5056 -0.7599 39.9 43 0.00 0.00 177.70 13.6
07/31/2021 00:00:00 2021-07-30 17:00:00 12.8889 -0.7774 38.9 42 0.00 0.00 394.50 13.5
07/30/2021 23:00:00 2021-07-30 16:00:00 13.0167 1.7492 46.3 41 0.00 0.00 733.00 13.6
07/30/2021 22:00:00 2021-07-30 15:00:00 13.1556 1.1615 44.0 43 0.00 0.00 955.00 13.6
07/30/2021 21:00:00 2021-07-30 14:00:00 12.8833 1.1493 44.7 44 0.00 0.00 839.00 13.7
07/30/2021 20:00:00 2021-07-30 13:00:00 12.3611 1.1349 46.3 49 0.00 0.00 920.00 13.7
07/30/2021 19:00:00 2021-07-30 12:00:00 11.2833 0.6692 48.0 51 0.00 0.00 855.00 13.8
07/30/2021 18:00:00 2021-07-30 11:00:00 10.7556 0.9889 50.9 55 0.00 0.00 726.30 14.4
07/30/2021 17:00:00 2021-07-30 10:00:00 10.8333 2.1409 55.0 57 0.00 0.00 568.00 14.4
07/30/2021 16:00:00 2021-07-30 09:00:00 9.7556 1.0160 54.5 59 0.00 0.00 386.00 14.5
07/30/2021 15:00:00 2021-07-30 08:00:00 9.7556 1.1380 55.0 60 0.00 0.00 208.00 13.5
07/30/2021 14:00:00 2021-07-30 07:00:00 9.2778 0.7602 55.3 61 0.00 0.00 77.71 13.2
07/30/2021 13:00:00 2021-07-30 06:00:00 9.6833 0.4567 52.6 62 0.00 0.00 4.22 13.1
07/30/2021 12:00:00 2021-07-30 05:00:00 9.6833 0.4908 52.7 62 0.00 0.00 0.00 13.2
07/30/2021 11:00:00 2021-07-30 04:00:00 9.6167 1.1268 55.5 62 0.00 0.00 0.00 13.2
07/30/2021 10:00:00 2021-07-30 03:00:00 9.3444 1.7350 59.0 60 0.00 0.00 0.00 13.2
07/30/2021 09:00:00 2021-07-30 02:00:00 9.4111 1.2056 56.6 59 0.00 0.00 0.00 13.3
07/30/2021 08:00:00 2021-07-30 01:00:00 9.0722 0.1541 53.6 58 0.00 0.00 0.00 13.3
07/30/2021 07:00:00 2021-07-30 00:00:00 9.2111 0.5770 54.8 56 0.00 0.00 0.00 13.4
07/30/2021 06:00:00 2021-07-29 23:00:00 9.3444 -0.1093 51.7 55 0.00 0.00 0.00 13.4
07/30/2021 05:00:00 2021-07-29 22:00:00 9.3444 0.8575 55.4 52 0.00 0.00 0.00 13.4
07/30/2021 04:00:00 2021-07-29 21:00:00 8.7333 0.1490 54.9 45 0.00 0.00 8.98 13.5
07/30/2021 03:00:00 2021-07-29 20:00:00 9.4833 -2.2234 43.8 40 0.00 0.00 20.42 13.5
07/30/2021 02:00:00 2021-07-29 19:00:00 9.5278 -6.2624 32.3 39 0.00 0.00 300.70 13.6
07/30/2021 01:00:00 2021-07-29 18:00:00 10.0056 -9.0772 25.1 45 0.00 0.00 567.30 13.6
07/30/2021 00:00:00 2021-07-29 17:00:00 9.0444 -1.8164 46.5 47 0.00 0.00 739.60 13.6
07/29/2021 23:00:00 2021-07-29 16:00:00 8.7000 -0.4668 52.6 46 0.00 0.00 876.00 13.7
07/29/2021 22:00:00 2021-07-29 15:00:00 9.1778 -5.7441 34.4 46 0.00 0.00 962.00 13.7
07/29/2021 21:00:00 2021-07-29 14:00:00 8.1722 0.1236 56.9 45 0.00 0.00 994.00 13.7
07/29/2021 20:00:00 2021-07-29 13:00:00 7.9056 0.1831 58.2 37 0.00 0.00 963.00 13.7
07/29/2021 19:00:00 2021-07-29 12:00:00 7.3056 -2.0541 51.5 54 0.00 0.00 874.00 13.8
07/29/2021 18:00:00 2021-07-29 11:00:00 7.9167 -1.1139 52.9 17 0.00 0.00 740.20 14.6
07/29/2021 17:00:00 2021-07-29 10:00:00 8.1889 -2.5333 46.8 32 0.00 0.00 579.90 14.5
07/29/2021 16:00:00 2021-07-29 09:00:00 9.0833 0.6487 55.5 48 0.00 0.00 400.00 14.5
07/29/2021 15:00:00 2021-07-29 08:00:00 8.0611 -0.8022 53.6 58 0.00 0.00 218.10 13.5
07/29/2021 14:00:00 2021-07-29 07:00:00 7.5278 0.8344 62.6 61 0.00 0.00 73.94 13.2
07/29/2021 13:00:00 2021-07-29 06:00:00 6.8389 1.9385 71.0 52 0.00 0.00 5.07 13.1
07/29/2021 12:00:00 2021-07-29 05:00:00 7.0444 -0.3176 59.5 69 0.00 0.00 0.00 13.2
07/29/2021 11:00:00 2021-07-29 04:00:00 7.7944 1.4889 64.4 32 0.00 0.00 0.00 13.2
07/29/2021 10:00:00 2021-07-29 03:00:00 7.4500 0.9832 63.6 49 0.00 0.00 0.00 13.2
07/29/2021 09:00:00 2021-07-29 02:00:00 8.3944 -3.4019 43.2 38 0.00 0.00 0.00 13.3
07/29/2021 08:00:00 2021-07-29 01:00:00 8.8056 -12.8911 20.1 16 0.00 0.00 0.00 13.3
07/29/2021 07:00:00 2021-07-29 00:00:00 8.1944 -14.4832 18.4 8 0.00 0.00 0.00 13.3
07/29/2021 06:00:00 2021-07-28 23:00:00 8.2667 -14.6035 18.2 35 0.00 0.00 0.00 13.4
07/29/2021 05:00:00 2021-07-28 22:00:00 8.2000 -18.6059 13.1 24 0.00 0.00 0.00 13.4
07/29/2021 04:00:00 2021-07-28 21:00:00 8.4000 -23.7468 8.2 18 0.00 0.00 9.06 13.5
07/29/2021 03:00:00 2021-07-28 20:00:00 7.9278 -21.0864 10.7 18 0.00 0.00 19.54 13.5
07/29/2021 02:00:00 2021-07-28 19:00:00 7.3556 -13.4611 21.2 28 0.00 0.00 316.10 13.5
07/29/2021 01:00:00 2021-07-28 18:00:00 8.2944 -10.7531 24.7 32 0.00 0.00 587.50 13.6
07/29/2021 00:00:00 2021-07-28 17:00:00 8.1556 -16.4011 15.8 29 0.00 0.00 778.40 13.6
07/28/2021 23:00:00 2021-07-28 16:00:00 8.2333 -10.2902 25.8 22 0.00 0.00 656.80 13.7
07/28/2021 22:00:00 2021-07-28 15:00:00 6.8667 2.9174 75.9 38 0.00 0.00 977.00 13.8
07/28/2021 21:00:00 2021-07-28 14:00:00 7.7333 1.3242 63.9 22 0.00 0.00 1023.00 13.9
07/28/2021 20:00:00 2021-07-28 13:00:00 7.2056 -4.8713 42.0 22 0.00 0.00 928.00 14.4
07/28/2021 19:00:00 2021-07-28 12:00:00 10.3444 -16.4111 13.6 28 0.00 0.00 812.00 14.5
07/28/2021 18:00:00 2021-07-28 11:00:00 8.1222 -19.1075 12.6 20 0.00 0.00 518.10 14.5
07/28/2021 17:00:00 2021-07-28 10:00:00 8.1333 -23.6803 8.4 15 0.00 0.00 457.30 14.5
07/28/2021 16:00:00 2021-07-28 09:00:00 7.6667 -21.4304 10.6 28 0.00 0.00 419.60 14.4
07/28/2021 15:00:00 2021-07-28 08:00:00 7.2722 -24.1533 8.6 17 0.00 0.00 232.80 13.7
07/28/2021 14:00:00 2021-07-28 07:00:00 6.8611 -22.8126 9.9 25 0.00 0.00 74.85 13.3
07/28/2021 13:00:00 2021-07-28 06:00:00 6.8611 -23.6128 9.3 20 0.00 0.00 7.26 13.3
07/28/2021 12:00:00 2021-07-28 05:00:00 6.5222 -23.9593 9.2 20 0.00 0.00 0.00 13.3
07/28/2021 11:00:00 2021-07-28 04:00:00 6.8111 -23.7245 9.2 17 0.00 0.00 0.00 13.4
07/28/2021 10:00:00 2021-07-28 03:00:00 5.9833 -17.4636 16.7 13 0.00 0.00 0.00 13.4
07/28/2021 09:00:00 2021-07-28 02:00:00 5.9167 -18.8304 15.0 17 0.00 0.00 0.00 13.5
07/28/2021 08:00:00 2021-07-28 01:00:00 6.4000 -20.4592 12.6 26 0.00 0.00 0.00 13.5
07/28/2021 07:00:00 2021-07-28 00:00:00 6.0611 -17.7380 16.3 28 0.00 0.00 0.00 13.6
07/28/2021 06:00:00 2021-07-27 23:00:00 6.3333 -18.7626 14.6 27 0.00 0.00 0.00 13.6
07/28/2021 05:00:00 2021-07-27 22:00:00 6.7278 -18.3394 14.8 26 0.00 0.00 0.11 13.7
07/28/2021 04:00:00 2021-07-27 21:00:00 6.5833 -13.9042 21.6 18 0.00 0.00 17.90 13.7
07/28/2021 03:00:00 2021-07-27 20:00:00 6.5667 -11.2581 26.7 26 0.00 0.00 24.41 13.8
07/28/2021 02:00:00 2021-07-27 19:00:00 6.5944 -7.6546 35.4 30 0.00 0.00 172.00 13.9
07/28/2021 01:00:00 2021-07-27 18:00:00 9.7778 -5.7450 33.0 25 0.00 0.00 558.50 14.3
07/28/2021 00:00:00 2021-07-27 17:00:00 8.2167 -7.9760 30.9 25 0.00 0.00 596.70 14.4
07/27/2021 23:00:00 2021-07-27 16:00:00 8.6944 -6.3831 33.8 24 0.00 0.00 762.30 14.5
07/27/2021 22:00:00 2021-07-27 15:00:00 6.7944 -4.3764 44.8 26 0.00 0.00 858.00 14.4
07/27/2021 21:00:00 2021-07-27 14:00:00 10.0111 -3.1148 39.6 36 0.00 0.00 793.90 14.5
07/27/2021 20:00:00 2021-07-27 13:00:00 7.7611 -3.5513 44.6 29 0.00 0.00 854.00 14.4
07/27/2021 19:00:00 2021-07-27 12:00:00 7.9000 -6.3655 35.7 24 0.00 0.00 747.60 14.5
07/27/2021 18:00:00 2021-07-27 11:00:00 9.9556 -11.2360 21.3 28 0.00 0.00 676.90 14.6
07/27/2021 17:00:00 2021-07-27 10:00:00 8.3944 -10.3800 25.3 22 0.00 0.00 448.90 14.6
07/27/2021 16:00:00 2021-07-27 09:00:00 8.4056 -11.6840 22.8 24 0.00 0.00 436.30 14.5
07/27/2021 15:00:00 2021-07-27 08:00:00 9.1778 -12.3663 20.5 25 0.00 0.00 164.40 13.4
07/27/2021 14:00:00 2021-07-27 07:00:00 6.7167 -13.5997 21.9 16 0.00 0.00 36.18 13.1
07/27/2021 13:00:00 2021-07-27 06:00:00 7.0500 -16.9367 16.3 25 0.00 0.00 3.34 13.1
07/27/2021 12:00:00 2021-07-27 05:00:00 7.7389 -25.0143 7.7 25 0.00 0.00 0.00 13.1
07/27/2021 11:00:00 2021-07-27 04:00:00 7.6722 -19.8420 12.2 24 0.00 0.00 0.00 13.2
07/27/2021 10:00:00 2021-07-27 03:00:00 7.4611 -17.1649 15.5 17 0.00 0.00 0.00 13.2
07/27/2021 09:00:00 2021-07-27 02:00:00 8.3444 -20.4005 11.1 19 0.00 0.00 0.00 13.2
07/27/2021 08:00:00 2021-07-27 01:00:00 7.9333 -19.0638 12.8 17 0.00 0.00 0.00 13.3
07/27/2021 07:00:00 2021-07-27 00:00:00 7.7333 -17.4777 14.8 22 0.00 0.00 0.00 13.3
07/27/2021 06:00:00 2021-07-26 23:00:00 8.0000 -18.2191 13.7 18 0.00 0.00 0.00 13.4
07/27/2021 05:00:00 2021-07-26 22:00:00 8.0000 -16.0133 16.5 28 0.00 0.00 0.11 13.4
07/27/2021 04:00:00 2021-07-26 21:00:00 7.1833 -10.4094 27.4 28 0.00 0.00 10.40 13.4
07/27/2021 03:00:00 2021-07-26 20:00:00 7.5111 -8.7523 30.5 27 0.00 0.00 23.44 13.5
07/27/2021 02:00:00 2021-07-26 19:00:00 7.6111 -6.4303 36.3 31 0.00 0.00 323.60 13.5
07/27/2021 01:00:00 2021-07-26 18:00:00 8.7444 -6.9873 32.2 31 0.00 0.00 600.50 13.5
07/27/2021 00:00:00 2021-07-26 17:00:00 8.9389 -5.7848 34.8 43 0.00 0.00 772.10 13.6
07/26/2021 23:00:00 2021-07-26 16:00:00 13.6222 4.1463 52.7 34 0.00 0.00 905.00 13.7
07/26/2021 22:00:00 2021-07-26 15:00:00 10.6667 4.5316 65.8 23 0.00 0.00 990.00 13.7
07/26/2021 21:00:00 2021-07-26 14:00:00 8.2389 2.2960 66.2 27 0.00 0.00 1018.00 13.7
07/26/2021 20:00:00 2021-07-26 13:00:00 8.7167 2.1940 63.6 23 0.00 0.00 991.00 13.7
07/26/2021 19:00:00 2021-07-26 12:00:00 7.7667 -6.9106 34.6 26 0.00 0.00 908.00 13.7
07/26/2021 18:00:00 2021-07-26 11:00:00 9.0722 -11.7799 21.6 24 0.00 0.00 779.40 13.7
07/26/2021 17:00:00 2021-07-26 10:00:00 9.4833 -15.7897 15.2 20 0.00 0.00 615.00 14.5
07/26/2021 16:00:00 2021-07-26 09:00:00 10.3722 -21.3410 8.9 21 0.00 0.00 426.60 14.4
07/26/2021 15:00:00 2021-07-26 08:00:00 9.0167 -14.4507 17.5 28 0.00 0.00 236.30 13.5
07/26/2021 14:00:00 2021-07-26 07:00:00 8.8778 -15.0984 16.7 34 0.00 0.00 85.80 13.2
07/26/2021 13:00:00 2021-07-26 06:00:00 8.6722 -15.6115 16.3 27 0.00 0.00 8.89 13.1
07/26/2021 12:00:00 2021-07-26 05:00:00 9.8222 -20.2056 10.2 29 0.00 0.00 0.00 13.1
07/26/2021 11:00:00 2021-07-26 04:00:00 9.3444 -21.3710 9.5 27 0.00 0.00 0.00 13.2
07/26/2021 10:00:00 2021-07-26 03:00:00 9.2167 -22.6679 8.6 33 0.00 0.00 0.00 13.2
07/26/2021 09:00:00 2021-07-26 02:00:00 9.0833 -17.4117 13.6 28 0.00 0.00 0.00 13.2
07/26/2021 08:00:00 2021-07-26 01:00:00 8.8778 -15.7523 15.8 29 0.00 0.00 0.00 13.3
07/26/2021 07:00:00 2021-07-26 00:00:00 8.8722 -13.6523 18.8 13 0.00 0.00 0.00 13.3
07/26/2021 06:00:00 2021-07-25 23:00:00 9.2167 -16.3922 14.7 8 0.00 0.00 0.00 13.3
07/26/2021 05:00:00 2021-07-25 22:00:00 9.9056 -17.4295 12.9 25 0.00 0.00 0.17 13.4
07/26/2021 04:00:00 2021-07-25 21:00:00 7.3222 -10.8016 26.3 32 0.00 0.00 9.04 13.4
07/26/2021 03:00:00 2021-07-25 20:00:00 7.3833 -7.5537 33.8 47 0.00 0.00 18.97 13.5
07/26/2021 02:00:00 2021-07-25 19:00:00 7.4278 -4.4941 42.5 30 0.00 0.00 316.20 13.5
07/26/2021 01:00:00 2021-07-25 18:00:00 7.8944 -5.2269 39.0 33 0.00 0.00 592.80 13.5
07/26/2021 00:00:00 2021-07-25 17:00:00 8.3389 -0.3881 54.2 32 0.00 0.00 766.50 13.5
07/25/2021 23:00:00 2021-07-25 16:00:00 10.0222 0.5159 51.7 25 0.00 0.00 901.00 13.6
07/25/2021 22:00:00 2021-07-25 15:00:00 11.9111 1.5246 49.0 30 0.00 0.00 984.00 13.6
07/25/2021 21:00:00 2021-07-25 14:00:00 10.9056 -0.2226 46.2 30 0.00 0.00 1011.00 13.7
07/25/2021 20:00:00 2021-07-25 13:00:00 11.9944 -1.4883 39.2 32 0.00 0.00 986.00 13.7
07/25/2021 19:00:00 2021-07-25 12:00:00 15.1278 -5.1169 24.4 30 0.00 0.00 903.00 13.7
07/25/2021 18:00:00 2021-07-25 11:00:00 12.5833 -8.6347 21.9 26 0.00 0.00 774.80 13.7
07/25/2021 17:00:00 2021-07-25 10:00:00 13.0111 -11.3219 17.3 30 0.00 0.00 610.80 14.4
07/25/2021 16:00:00 2021-07-25 09:00:00 11.5278 -12.7766 16.9 28 0.00 0.00 424.70 14.5
07/25/2021 15:00:00 2021-07-25 08:00:00 10.2444 -13.8271 16.9 25 0.00 0.00 235.90 13.5
07/25/2021 14:00:00 2021-07-25 07:00:00 9.3111 -15.5997 15.6 26 0.00 0.00 85.20 13.1
07/25/2021 13:00:00 2021-07-25 06:00:00 8.9722 -15.1597 16.5 23 0.00 0.00 9.24 13.1
07/25/2021 12:00:00 2021-07-25 05:00:00 7.2722 -12.8245 22.5 30 0.00 0.00 0.00 13.1
07/25/2021 11:00:00 2021-07-25 04:00:00 7.4056 -14.0548 20.1 27 0.00 0.00 0.00 13.1
07/25/2021 10:00:00 2021-07-25 03:00:00 7.2722 -12.9797 22.2 27 0.00 0.00 0.00 13.2
07/25/2021 09:00:00 2021-07-25 02:00:00 7.2722 -12.1312 23.7 20 0.00 0.00 0.00 13.2
07/25/2021 08:00:00 2021-07-25 01:00:00 8.2222 -12.0212 22.5 30 0.00 0.00 0.00 13.2
07/25/2021 07:00:00 2021-07-25 00:00:00 8.0833 -12.9961 21.0 28 0.00 0.00 0.00 13.3
07/25/2021 06:00:00 2021-07-24 23:00:00 8.4056 -12.1412 22.0 20 0.00 0.00 0.00 13.3
07/25/2021 05:00:00 2021-07-24 22:00:00 8.6722 -13.0825 20.0 25 0.00 0.00 0.28 13.3
07/25/2021 04:00:00 2021-07-24 21:00:00 8.9500 -11.5294 22.2 31 0.00 0.00 9.23 13.4
07/25/2021 03:00:00 2021-07-24 20:00:00 7.4444 -1.2418 54.1 33 0.00 0.00 19.05 13.4
07/25/2021 02:00:00 2021-07-24 19:00:00 7.5333 2.0422 68.2 29 0.00 0.00 317.40 13.4
07/25/2021 01:00:00 2021-07-24 18:00:00 9.4722 -0.4350 50.0 32 0.00 0.00 589.30 13.5
07/25/2021 00:00:00 2021-07-24 17:00:00 12.0389 0.9481 46.6 33 0.00 0.00 760.40 13.5
07/24/2021 23:00:00 2021-07-24 16:00:00 12.7056 0.3727 42.8 34 0.00 0.00 894.00 13.6
07/24/2021 22:00:00 2021-07-24 15:00:00 9.9333 1.4477 55.6 34 0.00 0.00 978.00 13.6
07/24/2021 21:00:00 2021-07-24 14:00:00 12.5389 -0.9756 39.2 28 0.00 0.00 1008.00 13.7
07/24/2021 20:00:00 2021-07-24 13:00:00 12.5444 -4.4926 30.2 29 0.00 0.00 978.00 13.7
07/24/2021 19:00:00 2021-07-24 12:00:00 12.4944 -3.7193 32.1 29 0.00 0.00 896.00 13.7
07/24/2021 18:00:00 2021-07-24 11:00:00 11.3667 -3.8816 34.2 30 0.00 0.00 768.40 13.7
07/24/2021 17:00:00 2021-07-24 10:00:00 10.9778 -4.0126 34.7 31 0.00 0.00 606.00 14.5
07/24/2021 16:00:00 2021-07-24 09:00:00 12.5500 -4.2306 30.8 34 0.00 0.00 422.30 14.5
07/24/2021 15:00:00 2021-07-24 08:00:00 11.1944 -4.4572 33.1 25 0.00 0.00 234.70 13.5
07/24/2021 14:00:00 2021-07-24 07:00:00 10.2500 -6.6491 29.9 24 0.00 0.00 85.80 13.2
07/24/2021 13:00:00 2021-07-24 06:00:00 8.4167 -7.6140 31.4 23 0.00 0.00 9.01 13.1
07/24/2021 12:00:00 2021-07-24 05:00:00 8.9611 -10.5889 23.9 26 0.00 0.00 0.00 13.2
07/24/2021 11:00:00 2021-07-24 04:00:00 9.0333 -8.0954 29.0 20 0.00 0.00 0.00 13.2
07/24/2021 10:00:00 2021-07-24 03:00:00 8.6222 -8.2413 29.5 25 0.00 0.00 0.00 13.2
07/24/2021 09:00:00 2021-07-24 02:00:00 8.6222 -5.6132 36.0 28 0.00 0.00 0.00 13.3
07/24/2021 08:00:00 2021-07-24 01:00:00 7.4611 -7.2266 34.5 26 0.00 0.00 0.00 13.3
07/24/2021 07:00:00 2021-07-24 00:00:00 7.5333 -11.7367 24.1 27 0.00 0.00 0.00 13.3